sensor_id;sensor_type;location;lat;lon;timestamp;P1;P2;P0
47709;PMS7003;33473;51.640;5.892;2022-08-21T00:04:38;8.65;10.04;7.31
47709;PMS7003;33473;51.640;5.892;2022-08-21T00:17:59;7.45;9.93;7.42
47709;PMS7003;33473;51.640;5.892;2022-08-21T00:31:20;7.69;9.49;7.2
47709;PMS7003;33473;51.640;5.892;2022-08-21T00:44:40;8.65;10.26;7.64
47709;PMS7003;33473;51.640;5.892;2022-08-21T00:58:01;8.05;10.04;7.64
47709;PMS7003;33473;51.640;5.892;2022-08-21T01:11:21;9.01;10.15;7.75
47709;PMS7003;33473;51.640;5.892;2022-08-21T01:24:42;9.25;10.58;7.97
47709;PMS7003;33473;51.640;5.892;2022-08-21T01:38:03;9.73;11.89;9.27
47709;PMS7003;33473;51.640;5.892;2022-08-21T01:51:24;10.93;12.87;9.71
47709;PMS7003;33473;51.640;5.892;2022-08-21T02:04:46;13.09;14.94;11.02
47709;PMS7003;33473;51.640;5.892;2022-08-21T02:18:07;13.21;15.05;11.02
47709;PMS7003;33473;51.640;5.892;2022-08-21T02:31:26;12.13;13.53;9.93
47709;PMS7003;33473;51.640;5.892;2022-08-21T02:44:48;13.21;14.83;10.8
47709;PMS7003;33473;51.640;5.892;2022-08-21T02:58:09;10.09;12.22;9.17
47709;PMS7003;33473;51.640;5.892;2022-08-21T03:11:30;10.45;12.65;9.49
47709;PMS7003;33473;51.640;5.892;2022-08-21T03:24:51;13.45;12.98;9.82
47709;PMS7003;33473;51.640;5.892;2022-08-21T03:38:12;9.25;11.56;8.95
47709;PMS7003;33473;51.640;5.892;2022-08-21T03:51:34;13.93;15.27;11.45
47709;PMS7003;33473;51.640;5.892;2022-08-21T04:04:55;14.53;15.49;11.35
47709;PMS7003;33473;51.640;5.892;2022-08-21T04:18:15;14.89;15.38;11.24
47709;PMS7003;33473;51.640;5.892;2022-08-21T04:31:36;16.81;17.34;12.22
47709;PMS7003;33473;51.640;5.892;2022-08-21T04:44:56;19.33;18.98;13.09
47709;PMS7003;33473;51.640;5.892;2022-08-21T04:58:17;20.89;19.63;13.85
47709;PMS7003;33473;51.640;5.892;2022-08-21T05:11:36;21.97;19.85;13.74
47709;PMS7003;33473;51.640;5.892;2022-08-21T05:24:58;22.81;20.28;14.51
47709;PMS7003;33473;51.640;5.892;2022-08-21T05:38:17;22.93;21.16;14.51
47709;PMS7003;33473;51.640;5.892;2022-08-21T05:51:39;21.73;20.17;13.74
47709;PMS7003;33473;51.640;5.892;2022-08-21T06:05:00;17.29;17.99;12.76
47709;PMS7003;33473;51.640;5.892;2022-08-21T06:18:21;17.77;16.14;11.45
47709;PMS7003;33473;51.640;5.892;2022-08-21T06:31:41;9.85;11.78;8.62
47709;PMS7003;33473;51.640;5.892;2022-08-21T06:45:02;7.93;10.15;7.53
47709;PMS7003;33473;51.640;5.892;2022-08-21T06:58:23;9.13;9.82;6.99
47709;PMS7003;33473;51.640;5.892;2022-08-21T07:11:43;7.69;8.62;6.22
47709;PMS7003;33473;51.640;5.892;2022-08-21T07:25:04;6.37;8.18;5.9
47709;PMS7003;33473;51.640;5.892;2022-08-21T07:38:25;6.13;8.18;5.9
47709;PMS7003;33473;51.640;5.892;2022-08-21T07:51:45;5.29;7.86;5.57
47709;PMS7003;33473;51.640;5.892;2022-08-21T08:05:05;6.25;8.08;5.35
47709;PMS7003;33473;51.640;5.892;2022-08-21T08:18:24;4.21;6.88;4.7
47709;PMS7003;33473;51.640;5.892;2022-08-21T08:31:45;3.97;6.55;4.7
47709;PMS7003;33473;51.640;5.892;2022-08-21T08:45:05;4.93;5.57;3.82
47709;PMS7003;33473;51.640;5.892;2022-08-21T08:58:25;3.24;4.37;3.06
47709;PMS7003;33473;51.640;5.892;2022-08-21T09:11:44;1.56;3.82;2.52
47709;PMS7003;33473;51.640;5.892;2022-08-21T09:25:04;0.24;3.39;2.41
47709;PMS7003;33473;51.640;5.892;2022-08-21T09:38:24;0.84;2.84;1.86
47709;PMS7003;33473;51.640;5.892;2022-08-21T09:51:43;0.01;2.52;1.75
47709;PMS7003;33473;51.640;5.892;2022-08-21T10:05:04;0.72;2.62;1.86
47709;PMS7003;33473;51.640;5.892;2022-08-21T10:18:24;0.01;2.3;1.64
47709;PMS7003;33473;51.640;5.892;2022-08-21T10:31:44;0.01;2.19;1.64
47709;PMS7003;33473;51.640;5.892;2022-08-21T10:45:03;0.01;1.97;1.21
47709;PMS7003;33473;51.640;5.892;2022-08-21T10:58:23;0.01;2.08;1.54
47709;PMS7003;33473;51.640;5.892;2022-08-21T11:11:44;0.01;2.08;1.43
47709;PMS7003;33473;51.640;5.892;2022-08-21T11:25:04;0.01;2.41;1.75
47709;PMS7003;33473;51.640;5.892;2022-08-21T11:38:25;0.01;2.62;1.75
47709;PMS7003;33473;51.640;5.892;2022-08-21T11:51:46;0.01;2.73;2.3
47709;PMS7003;33473;51.640;5.892;2022-08-21T12:05:06;0.01;2.3;1.75
47709;PMS7003;33473;51.640;5.892;2022-08-21T12:18:26;0.01;2.84;2.3
47709;PMS7003;33473;51.640;5.892;2022-08-21T12:31:46;2.04;4.37;3.71
47709;PMS7003;33473;51.640;5.892;2022-08-21T12:45:05;3.85;5.24;4.37
47709;PMS7003;33473;51.640;5.892;2022-08-21T12:58:25;2.64;5.57;4.7
47709;PMS7003;33473;51.640;5.892;2022-08-21T13:11:45;2.16;3.93;3.28
47709;PMS7003;33473;51.640;5.892;2022-08-21T13:25:04;1.92;3.93;3.17
47709;PMS7003;33473;51.640;5.892;2022-08-21T13:38:24;1.44;3.71;3.06
47709;PMS7003;33473;51.640;5.892;2022-08-21T13:51:44;0.84;3.5;2.84
47709;PMS7003;33473;51.640;5.892;2022-08-21T14:05:03;1.92;3.39;2.62
47709;PMS7003;33473;51.640;5.892;2022-08-21T14:18:23;1.2;2.62;1.97
47709;PMS7003;33473;51.640;5.892;2022-08-21T14:31:43;0.01;2.08;1.54
47709;PMS7003;33473;51.640;5.892;2022-08-21T14:45:04;0.12;2.3;1.75
47709;PMS7003;33473;51.640;5.892;2022-08-21T14:58:25;0.01;1.97;1.54
47709;PMS7003;33473;51.640;5.892;2022-08-21T15:11:45;1.44;2.52;1.97
47709;PMS7003;33473;51.640;5.892;2022-08-21T15:25:06;0.01;2.19;1.54
47709;PMS7003;33473;51.640;5.892;2022-08-21T15:38:26;0.01;1.97;1.54
47709;PMS7003;33473;51.640;5.892;2022-08-21T15:51:47;0.01;2.08;1.54
47709;PMS7003;33473;51.640;5.892;2022-08-21T16:05:07;0.01;2.19;1.75
47709;PMS7003;33473;51.640;5.892;2022-08-21T16:18:26;0.01;2.3;1.75
47709;PMS7003;33473;51.640;5.892;2022-08-21T16:31:46;0.01;2.41;1.86
47709;PMS7003;33473;51.640;5.892;2022-08-21T16:45:07;0.36;2.62;1.86
47709;PMS7003;33473;51.640;5.892;2022-08-21T16:58:29;0.36;2.52;1.97
47709;PMS7003;33473;51.640;5.892;2022-08-21T17:11:48;0.36;3.39;2.62
47709;PMS7003;33473;51.640;5.892;2022-08-21T17:25:08;0.36;3.39;2.52
47709;PMS7003;33473;51.640;5.892;2022-08-21T17:38:29;2.28;3.93;2.95
47709;PMS7003;33473;51.640;5.892;2022-08-21T17:51:50;0.84;3.39;2.62
47709;PMS7003;33473;51.640;5.892;2022-08-21T18:05:10;0.01;2.84;2.19
47709;PMS7003;33473;51.640;5.892;2022-08-21T18:18:30;0.48;3.5;2.52
47709;PMS7003;33473;51.640;5.892;2022-08-21T18:31:49;0.6;3.5;2.73
47709;PMS7003;33473;51.640;5.892;2022-08-21T18:45:11;0.36;3.28;2.19
47709;PMS7003;33473;51.640;5.892;2022-08-21T18:58:30;0.96;3.28;2.19
47709;PMS7003;33473;51.640;5.892;2022-08-21T19:11:51;2.4;3.71;2.84
47709;PMS7003;33473;51.640;5.892;2022-08-21T19:25:11;1.32;3.93;2.84
47709;PMS7003;33473;51.640;5.892;2022-08-21T19:38:31;2.52;4.7;3.28
47709;PMS7003;33473;51.640;5.892;2022-08-21T19:51:50;2.4;3.93;2.95
47709;PMS7003;33473;51.640;5.892;2022-08-21T20:05:10;1.68;4.37;3.39
47709;PMS7003;33473;51.640;5.892;2022-08-21T20:18:31;2.04;4.15;3.17
47709;PMS7003;33473;51.640;5.892;2022-08-21T20:31:51;1.68;4.26;3.28
47709;PMS7003;33473;51.640;5.892;2022-08-21T20:45:11;2.76;5.02;3.82
47709;PMS7003;33473;51.640;5.892;2022-08-21T20:58:30;3.48;5.13;3.93
47709;PMS7003;33473;51.640;5.892;2022-08-21T21:11:50;3.97;6.66;4.91
47709;PMS7003;33473;51.640;5.892;2022-08-21T21:25:10;2.88;5.68;4.26
47709;PMS7003;33473;51.640;5.892;2022-08-21T21:38:30;2.52;5.46;4.26
47709;PMS7003;33473;51.640;5.892;2022-08-21T21:51:51;4.45;6.55;4.59
47709;PMS7003;33473;51.640;5.892;2022-08-21T22:05:10;5.77;6.88;5.02
47709;PMS7003;33473;51.640;5.892;2022-08-21T22:18:32;6.01;8.08;5.9
47709;PMS7003;33473;51.640;5.892;2022-08-21T22:31:53;7.57;8.95;5.9
47709;PMS7003;33473;51.640;5.892;2022-08-21T22:45:12;7.33;8.95;6.11
47709;PMS7003;33473;51.640;5.892;2022-08-21T22:58:32;6.49;8.18;6.22
47709;PMS7003;33473;51.640;5.892;2022-08-21T23:11:53;6.85;7.86;5.57
47709;PMS7003;33473;51.640;5.892;2022-08-21T23:25:14;6.25;7.42;5.35
47709;PMS7003;33473;51.640;5.892;2022-08-21T23:38:36;4.69;6.44;4.8
47709;PMS7003;33473;51.640;5.892;2022-08-21T23:51:55;3.97;6.66;5.13
